Aktualne dane pomiarowe

Uwaga, wersja testowa! Automatyczne pobieranie danych za pomocą narzędzi lub skryptów to umożliwiających jest zabronione.

Dane meteo z obszaru Polski uzyskane na podstawie depesz SYNOP pobieranych co godzinę z NWS. Najedź myszką na symbol przedstawiony w tabeli, aby uzyskać informacje co do jego znaczenia. Prosimy pamiętać, że to testowa wersja strony, która jeszcze nie jest ukończona. Stworzono również jest krótki FAQ dotyczący korzystania z tej podstrony Anomalie temperatury w chwili obecnej odniesione są do okresu referencyjnego 1951-2016. Okres ten będzie później zmieniony na 1981-2010. Kliknij ikonę aby pobrać plik CSV. Kliknij ikonę aby wygenerować mapę synoptyczną dla danego terminu.

Wybierz Datę:    

        

Legnica (12415)

Dane terminowe dla wybranej stacji. Kliknij datę, aby otrzymać dane z tego terminu dla wszystkich stacji.

TemperaturaZachmurzenieWiatrCiśnienieOpadyPogoda
 Data t td wb tx tn tg rh  Nt Nl Cl Cm Ch ws wd g1 g2 wx mslp ppp ch 24h 12h t ww ww w1 w2  
2019-07-07 23:00:00 14.2 6.5 9.8--- 6050.0--3wx--31013.3 998.4 1.7---------
2019-07-07 22:00:00 15.5 6.2 10.3--- 5450.0--3wx--31012.6 997.7 1.3---------
2019-07-07 21:00:00 16.0 6.4 10.6--- 5345.0--2wx--21011.9 997.1 1.3---------
2019-07-07 20:00:00 16.5 6.0 10.7--- 5050.0--3wx--31011.5 996.7 1.4---------
2019-07-07 19:00:00 17.2 5.2 10.7--- 4550.0--5wx---1011.2 996.4 1.3---------
2019-07-07 18:00:00 17.8 5.3 11.0 21.3 13.1- 4450.0wxwxwx4wx---1010.5 995.8 0.9---------
2019-07-07 17:00:00 18.2 4.6 10.9--- 4150.0wxwxwxwx7wx---1010.0 995.3 0.4---------
2019-07-07 16:00:00 19.7 4.9 11.8--- 3850.0wxwxwxwxwx7wx---1009.7 995.1 0.2---------
2019-07-07 15:00:00 19.9 4.8 11.8--- 3750.0wxwxwxwxwx7wx-1371009.5 994.9 -0.1---------
2019-07-07 14:00:00 20.0 5.6 12.2--- 3950.0wxwxwxwx7wx-1371009.5 994.9 0.1---------
2019-07-07 13:00:00 20.4 5.2 12.2--- 3750.0wxwxwxwx6wx---1009.5 994.9 0.1---------
2019-07-07 12:00:00 19.7 6.0 12.2--- 4150.0wxwxwxwx7wx-1071009.6 995.0 0.1- 0.06------
2019-07-07 11:00:00 19.6 5.9 12.1--- 4150.0wxwxwxwx7wx---1009.4 994.8 0.1---------
2019-07-07 10:00:00 19.1 7.4 12.5--- 4740.0wxwxwxwx5wx101051009.4 994.8 0.1---------
2019-07-07 09:00:00 16.5 8.9 12.0--- 6140.0wxwxwxwx5wx--51009.7 994.9 0.2---------
2019-07-07 08:00:00 15.2 9.2 11.5--- 6730.0wxwxwxwx6wx--61009.5 994.7 0.5---------
2019-07-07 07:00:00 13.6 10.1 11.3--- 7930.0wxwxwxwx6wx--61009.6 994.7 1.0---------
2019-07-07 06:00:00 13.1 11.2 11.8 25.7 13.0 13 8830.0wxwxwx4wx--41009.7 994.7 1.6 1.6 2.012wx---- 8.5
2019-07-07 05:00:00 13.2 12.1 12.4--- 9322.0--3wx--31009.1 994.2 0.9---wx-----
2019-07-07 04:00:00 13.7 12.1 12.6--- 9024.0--5wx--51008.6 993.7 0.6---wx-----
2019-07-07 03:00:00 16.4 14.4 15.0--- 8824.0--4wx--41007.9 993.1 0.2---wx-----
2019-07-07 02:00:00 16.8 14.3 15.1--- 8540.0--4wx--41008.0 993.3 0.5---------
2019-07-07 01:00:00 16.1 13.4 14.2--- 8435.0--3wx---1007.9 993.1 0.4---------
2019-07-07 00:00:00 16.5 13.8 14.6--- 8445.0--1wx--11007.6 992.9 0.9- 0.36------
2019-07-06 23:00:00 15.5 13.7 14.2--- 8930.0--1wx--11007.6 992.8 0.4---------
2019-07-06 22:00:00 18.2 13.5 15.1--- 7450.0--1wx--11007.4 992.7 1.2---------
2019-07-06 21:00:00 19.6 13.3 15.5--- 6730.0--2wx--21006.6 992.0 0.9---wx-----
2019-07-06 20:00:00 21.2 12.3 15.7--- 5745.0--3wx--31006.9 992.4 1.1---wx-----
2019-07-06 19:00:00 22.4 11.5 15.8--- 5050.0--3wx--31005.9 991.5 0.2---------
2019-07-06 18:00:00 25.7 8.2 15.7 29.9 18.6- 3350.0wx-wxwx4wx-1241005.4 991.1 -0.3- 0.012------
2019-07-06 17:00:00 27.3 7.2 15.9--- 2850.0wx-wx6wx-1161005.5 991.3 -0.4---------
2019-07-06 16:00:00 28.2 7.4 16.4--- 2750.0wx-wxwx6wx-1261005.4 991.3 -0.8---------
2019-07-06 15:00:00 28.8 7.9 16.8--- 2750.0wxwxwxwxwx7wx-1271005.5 991.4 -1.3---------
2019-07-06 14:00:00 29.2 9.3 17.5--- 2950.0wxwxwxwxwx6wx-1161005.8 991.7 -1.5---------
2019-07-06 13:00:00 28.5 9.2 17.2--- 3050.0wxwxwxwxwx6wx111261006.2 992.1 -1.9---------
2019-07-06 12:00:00 27.9 8.7 16.8--- 3050.0wxwxwxwxwx7wx-1571006.9 992.7 -2.4- 0.06------
2019-07-06 11:00:00 28.1 8.9 16.9--- 3050.0wxwxwxwxwx6wx151561007.4 993.2 -2.4---------
2019-07-06 10:00:00 26.3 10.4 16.9--- 3750.0wxwxwxwxwx3wx--31008.3 994.0 -2.3---------
2019-07-06 09:00:00 24.1 9.7 15.7--- 4040.0wxwxwxwxwx4wx--41009.5 995.1 -1.8---------
2019-07-06 08:00:00 22.9 10.7 15.6--- 4640.0wxwxwxwxwx2wx--21010.1 995.6 -1.6---------
2019-07-06 07:00:00 20.2 11.1 14.7--- 5640.0wx-wxwx1wx--11010.9 996.3 -1.2---------
2019-07-06 06:00:00 18.6 11.1 14.0 20.7 13.5 11 6240.0wx-wxwx2wx--21011.6 996.9 -1.0- 0.012wx---- 0.5
2019-07-06 05:00:00 16.7 11.4 13.3--- 7124.0--1wx--11012.0 997.2 -0.8---------
2019-07-06 04:00:00 14.9 11.1 12.4--- 7821.0--1wx--11012.4 997.5 -0.9---------
2019-07-06 03:00:00 14.1 10.5 11.7--- 7950.0--1wx---1012.8 997.9 -0.6---------
2019-07-06 02:00:00 13.6 10.0 11.3--- 7950.0--1wx--11013.0 998.0 -0.8---------
2019-07-06 01:00:00 15.0 10.8 12.3--- 7650.0--1wx--11013.3 998.4 -0.5---------
2019-07-06 00:00:00 16.3 11.0 12.9--- 7150.0--2wx--21013.3 998.5 -0.2- 0.06------
1.9 ms

 

Print Friendly, PDF & Email